sensor_id;sensor_type;location;lat;lon;timestamp;temperature;humidity
26503;DHT22;14177;51.520;6.764;2023-04-24T00:02:00;11.80;99.90
26503;DHT22;14177;51.520;6.764;2023-04-24T00:04:27;11.90;99.90
26503;DHT22;14177;51.520;6.764;2023-04-24T00:06:54;11.90;99.90
26503;DHT22;14177;51.520;6.764;2023-04-24T00:09:23;11.90;99.90
26503;DHT22;14177;51.520;6.764;2023-04-24T00:11:51;11.80;99.90
26503;DHT22;14177;51.520;6.764;2023-04-24T00:14:18;11.90;99.90
26503;DHT22;14177;51.520;6.764;2023-04-24T00:16:45;11.80;99.90
26503;DHT22;14177;51.520;6.764;2023-04-24T00:19:12;11.80;99.90
26503;DHT22;14177;51.520;6.764;2023-04-24T00:21:40;11.70;99.90
26503;DHT22;14177;51.520;6.764;2023-04-24T00:24:07;11.80;99.90
26503;DHT22;14177;51.520;6.764;2023-04-24T00:26:35;11.80;99.90
26503;DHT22;14177;51.520;6.764;2023-04-24T00:29:02;11.80;99.90
26503;DHT22;14177;51.520;6.764;2023-04-24T00:31:29;11.80;99.90
26503;DHT22;14177;51.520;6.764;2023-04-24T00:33:57;11.80;99.90
26503;DHT22;14177;51.520;6.764;2023-04-24T00:36:24;11.70;99.90
26503;DHT22;14177;51.520;6.764;2023-04-24T00:38:51;11.70;99.90
26503;DHT22;14177;51.520;6.764;2023-04-24T00:41:18;11.70;99.90
26503;DHT22;14177;51.520;6.764;2023-04-24T00:43:45;11.60;99.90
26503;DHT22;14177;51.520;6.764;2023-04-24T00:46:13;11.60;99.90
26503;DHT22;14177;51.520;6.764;2023-04-24T00:48:43;11.50;99.90
26503;DHT22;14177;51.520;6.764;2023-04-24T00:51:10;11.50;99.90
26503;DHT22;14177;51.520;6.764;2023-04-24T00:53:37;11.40;99.90
26503;DHT22;14177;51.520;6.764;2023-04-24T00:56:04;11.40;99.90
26503;DHT22;14177;51.520;6.764;2023-04-24T00:58:32;11.40;99.90
26503;DHT22;14177;51.520;6.764;2023-04-24T01:00:59;11.30;99.90
26503;DHT22;14177;51.520;6.764;2023-04-24T01:03:29;11.30;99.90
26503;DHT22;14177;51.520;6.764;2023-04-24T01:05:58;11.30;99.90
26503;DHT22;14177;51.520;6.764;2023-04-24T01:08:26;11.20;99.90
26503;DHT22;14177;51.520;6.764;2023-04-24T01:10:57;11.20;99.90
26503;DHT22;14177;51.520;6.764;2023-04-24T01:13:24;11.20;99.90
26503;DHT22;14177;51.520;6.764;2023-04-24T01:15:51;11.10;99.90
26503;DHT22;14177;51.520;6.764;2023-04-24T01:18:18;11.00;99.90
26503;DHT22;14177;51.520;6.764;2023-04-24T01:20:51;11.00;99.90
26503;DHT22;14177;51.520;6.764;2023-04-24T01:23:20;11.00;99.90
26503;DHT22;14177;51.520;6.764;2023-04-24T01:25:49;10.90;99.90
26503;DHT22;14177;51.520;6.764;2023-04-24T01:28:17;10.90;99.90
26503;DHT22;14177;51.520;6.764;2023-04-24T01:30:45;10.80;99.90
26503;DHT22;14177;51.520;6.764;2023-04-24T01:33:11;10.80;99.90
26503;DHT22;14177;51.520;6.764;2023-04-24T01:35:39;10.80;99.90
26503;DHT22;14177;51.520;6.764;2023-04-24T01:38:06;10.80;99.90
26503;DHT22;14177;51.520;6.764;2023-04-24T01:40:35;10.80;99.90
26503;DHT22;14177;51.520;6.764;2023-04-24T01:43:02;10.80;99.90
26503;DHT22;14177;51.520;6.764;2023-04-24T01:45:29;10.70;99.90
26503;DHT22;14177;51.520;6.764;2023-04-24T01:47:56;10.70;99.90
26503;DHT22;14177;51.520;6.764;2023-04-24T01:50:23;10.80;99.90
26503;DHT22;14177;51.520;6.764;2023-04-24T01:52:50;10.80;99.90
26503;DHT22;14177;51.520;6.764;2023-04-24T01:55:17;10.70;99.90
26503;DHT22;14177;51.520;6.764;2023-04-24T01:57:44;10.70;99.90
26503;DHT22;14177;51.520;6.764;2023-04-24T02:00:11;10.70;99.90
26503;DHT22;14177;51.520;6.764;2023-04-24T02:02:40;10.70;99.90
26503;DHT22;14177;51.520;6.764;2023-04-24T02:05:08;10.70;99.90
26503;DHT22;14177;51.520;6.764;2023-04-24T02:07:36;10.70;99.90
26503;DHT22;14177;51.520;6.764;2023-04-24T02:10:04;10.70;99.90
26503;DHT22;14177;51.520;6.764;2023-04-24T02:12:31;10.70;99.90
26503;DHT22;14177;51.520;6.764;2023-04-24T02:14:58;10.80;99.90
26503;DHT22;14177;51.520;6.764;2023-04-24T02:17:25;10.70;99.90
26503;DHT22;14177;51.520;6.764;2023-04-24T02:19:52;10.70;99.90
26503;DHT22;14177;51.520;6.764;2023-04-24T02:22:19;10.70;99.90
26503;DHT22;14177;51.520;6.764;2023-04-24T02:24:46;10.60;99.90
26503;DHT22;14177;51.520;6.764;2023-04-24T02:27:14;10.60;99.90
26503;DHT22;14177;51.520;6.764;2023-04-24T02:29:41;10.60;99.90
26503;DHT22;14177;51.520;6.764;2023-04-24T02:32:09;10.60;99.90
26503;DHT22;14177;51.520;6.764;2023-04-24T02:34:39;10.60;99.90
26503;DHT22;14177;51.520;6.764;2023-04-24T02:37:06;10.60;99.90
26503;DHT22;14177;51.520;6.764;2023-04-24T02:39:33;10.60;99.90
26503;DHT22;14177;51.520;6.764;2023-04-24T02:42:00;10.50;99.90
26503;DHT22;14177;51.520;6.764;2023-04-24T02:44:29;10.50;99.90
26503;DHT22;14177;51.520;6.764;2023-04-24T02:46:56;10.50;99.90
26503;DHT22;14177;51.520;6.764;2023-04-24T02:49:22;10.50;99.90
26503;DHT22;14177;51.520;6.764;2023-04-24T02:51:49;10.50;99.90
26503;DHT22;14177;51.520;6.764;2023-04-24T02:54:16;10.50;99.90
26503;DHT22;14177;51.520;6.764;2023-04-24T02:56:43;10.40;99.90
26503;DHT22;14177;51.520;6.764;2023-04-24T02:59:10;10.50;99.90
26503;DHT22;14177;51.520;6.764;2023-04-24T03:01:37;10.40;99.90
26503;DHT22;14177;51.520;6.764;2023-04-24T03:04:04;10.50;99.90
26503;DHT22;14177;51.520;6.764;2023-04-24T03:06:32;10.50;99.90
26503;DHT22;14177;51.520;6.764;2023-04-24T03:09:01;10.50;99.90
26503;DHT22;14177;51.520;6.764;2023-04-24T03:11:31;10.50;99.90
26503;DHT22;14177;51.520;6.764;2023-04-24T03:14:00;10.50;99.90
26503;DHT22;14177;51.520;6.764;2023-04-24T03:16:26;10.50;99.90
26503;DHT22;14177;51.520;6.764;2023-04-24T03:18:54;10.50;99.90
26503;DHT22;14177;51.520;6.764;2023-04-24T03:21:23;10.50;99.90
26503;DHT22;14177;51.520;6.764;2023-04-24T03:23:50;10.50;99.90
26503;DHT22;14177;51.520;6.764;2023-04-24T03:26:17;10.50;99.90
26503;DHT22;14177;51.520;6.764;2023-04-24T03:28:57;10.50;99.90
26503;DHT22;14177;51.520;6.764;2023-04-24T03:31:24;10.50;99.90
26503;DHT22;14177;51.520;6.764;2023-04-24T03:33:51;10.50;99.90
26503;DHT22;14177;51.520;6.764;2023-04-24T03:36:18;10.50;99.90
26503;DHT22;14177;51.520;6.764;2023-04-24T03:38:45;10.40;99.90
26503;DHT22;14177;51.520;6.764;2023-04-24T03:41:21;10.40;99.90
26503;DHT22;14177;51.520;6.764;2023-04-24T03:43:53;10.40;99.90
26503;DHT22;14177;51.520;6.764;2023-04-24T03:46:20;10.50;99.90
26503;DHT22;14177;51.520;6.764;2023-04-24T03:48:53;10.50;99.90
26503;DHT22;14177;51.520;6.764;2023-04-24T03:51:23;10.50;99.90
26503;DHT22;14177;51.520;6.764;2023-04-24T03:53:55;10.50;99.90
26503;DHT22;14177;51.520;6.764;2023-04-24T03:56:23;10.50;99.90
26503;DHT22;14177;51.520;6.764;2023-04-24T03:58:51;10.50;99.90
26503;DHT22;14177;51.520;6.764;2023-04-24T04:01:18;10.50;99.90
26503;DHT22;14177;51.520;6.764;2023-04-24T04:03:53;10.50;99.90
26503;DHT22;14177;51.520;6.764;2023-04-24T04:06:24;10.50;99.90
26503;DHT22;14177;51.520;6.764;2023-04-24T04:08:53;10.50;99.90
26503;DHT22;14177;51.520;6.764;2023-04-24T04:11:20;10.50;99.90
26503;DHT22;14177;51.520;6.764;2023-04-24T04:13:49;10.50;99.90
26503;DHT22;14177;51.520;6.764;2023-04-24T04:16:19;10.50;99.90
26503;DHT22;14177;51.520;6.764;2023-04-24T04:18:49;10.50;99.90
26503;DHT22;14177;51.520;6.764;2023-04-24T04:21:16;10.50;99.90
26503;DHT22;14177;51.520;6.764;2023-04-24T04:23:43;10.50;99.90
26503;DHT22;14177;51.520;6.764;2023-04-24T04:26:16;10.50;99.90
26503;DHT22;14177;51.520;6.764;2023-04-24T04:29:14;10.50;99.90
26503;DHT22;14177;51.520;6.764;2023-04-24T04:31:45;10.50;99.90
26503;DHT22;14177;51.520;6.764;2023-04-24T04:34:13;10.50;99.90
26503;DHT22;14177;51.520;6.764;2023-04-24T04:36:41;10.50;99.90
26503;DHT22;14177;51.520;6.764;2023-04-24T04:39:28;10.50;99.90
26503;DHT22;14177;51.520;6.764;2023-04-24T04:42:01;10.50;99.90
26503;DHT22;14177;51.520;6.764;2023-04-24T04:44:38;10.50;99.90
26503;DHT22;14177;51.520;6.764;2023-04-24T04:47:08;10.50;99.90
26503;DHT22;14177;51.520;6.764;2023-04-24T04:49:37;10.50;99.90
26503;DHT22;14177;51.520;6.764;2023-04-24T04:52:10;10.50;99.90
26503;DHT22;14177;51.520;6.764;2023-04-24T04:54:37;10.40;99.90
26503;DHT22;14177;51.520;6.764;2023-04-24T04:57:06;10.40;99.90
26503;DHT22;14177;51.520;6.764;2023-04-24T04:59:35;10.40;99.90
26503;DHT22;14177;51.520;6.764;2023-04-24T05:02:05;10.40;99.90
26503;DHT22;14177;51.520;6.764;2023-04-24T05:04:33;10.40;99.90
26503;DHT22;14177;51.520;6.764;2023-04-24T05:07:00;10.50;99.90
26503;DHT22;14177;51.520;6.764;2023-04-24T05:09:30;10.50;99.90
26503;DHT22;14177;51.520;6.764;2023-04-24T05:12:01;10.50;99.90
26503;DHT22;14177;51.520;6.764;2023-04-24T05:14:32;10.50;99.90
26503;DHT22;14177;51.520;6.764;2023-04-24T05:16:59;10.40;99.90
26503;DHT22;14177;51.520;6.764;2023-04-24T05:19:27;10.40;99.90
26503;DHT22;14177;51.520;6.764;2023-04-24T05:21:54;10.40;99.90
26503;DHT22;14177;51.520;6.764;2023-04-24T05:24:21;10.40;99.90
26503;DHT22;14177;51.520;6.764;2023-04-24T05:27:03;10.30;99.90
26503;DHT22;14177;51.520;6.764;2023-04-24T05:29:38;10.30;99.90
26503;DHT22;14177;51.520;6.764;2023-04-24T05:32:07;10.30;99.90
26503;DHT22;14177;51.520;6.764;2023-04-24T05:34:37;10.30;99.90
26503;DHT22;14177;51.520;6.764;2023-04-24T05:37:03;10.30;99.90
26503;DHT22;14177;51.520;6.764;2023-04-24T05:39:35;10.20;99.90
26503;DHT22;14177;51.520;6.764;2023-04-24T05:42:03;10.20;99.90
26503;DHT22;14177;51.520;6.764;2023-04-24T05:44:31;10.20;99.90
26503;DHT22;14177;51.520;6.764;2023-04-24T05:46:58;10.20;99.90
26503;DHT22;14177;51.520;6.764;2023-04-24T05:49:26;10.20;99.90
26503;DHT22;14177;51.520;6.764;2023-04-24T05:51:53;10.10;99.90
26503;DHT22;14177;51.520;6.764;2023-04-24T05:54:21;10.10;99.90
26503;DHT22;14177;51.520;6.764;2023-04-24T05:56:49;10.00;99.90
26503;DHT22;14177;51.520;6.764;2023-04-24T05:59:25;10.10;99.90
26503;DHT22;14177;51.520;6.764;2023-04-24T06:01:52;10.10;99.90
26503;DHT22;14177;51.520;6.764;2023-04-24T06:04:21;10.10;99.90
26503;DHT22;14177;51.520;6.764;2023-04-24T06:06:50;10.00;99.90
26503;DHT22;14177;51.520;6.764;2023-04-24T06:09:17;10.00;99.90
26503;DHT22;14177;51.520;6.764;2023-04-24T06:11:44;10.00;99.90
26503;DHT22;14177;51.520;6.764;2023-04-24T06:14:12;10.00;99.90
26503;DHT22;14177;51.520;6.764;2023-04-24T06:17:02;9.90;99.90
26503;DHT22;14177;51.520;6.764;2023-04-24T06:19:35;9.80;99.90
26503;DHT22;14177;51.520;6.764;2023-04-24T06:22:02;9.80;99.90
26503;DHT22;14177;51.520;6.764;2023-04-24T06:24:29;9.80;99.90
26503;DHT22;14177;51.520;6.764;2023-04-24T06:26:57;9.80;99.90
26503;DHT22;14177;51.520;6.764;2023-04-24T06:29:26;9.80;99.90
26503;DHT22;14177;51.520;6.764;2023-04-24T06:31:53;9.80;99.90
26503;DHT22;14177;51.520;6.764;2023-04-24T06:34:20;9.80;99.90
26503;DHT22;14177;51.520;6.764;2023-04-24T06:36:47;9.90;99.90
26503;DHT22;14177;51.520;6.764;2023-04-24T06:39:14;9.90;99.90
26503;DHT22;14177;51.520;6.764;2023-04-24T06:41:41;9.80;99.90
26503;DHT22;14177;51.520;6.764;2023-04-24T06:44:17;9.80;99.90
26503;DHT22;14177;51.520;6.764;2023-04-24T06:46:44;9.80;99.90
26503;DHT22;14177;51.520;6.764;2023-04-24T06:49:11;9.80;99.90
26503;DHT22;14177;51.520;6.764;2023-04-24T06:51:38;9.80;99.90
26503;DHT22;14177;51.520;6.764;2023-04-24T06:54:05;9.80;99.90
26503;DHT22;14177;51.520;6.764;2023-04-24T06:56:32;9.80;99.90
26503;DHT22;14177;51.520;6.764;2023-04-24T06:59:00;9.80;99.90
26503;DHT22;14177;51.520;6.764;2023-04-24T07:01:27;9.80;99.90
26503;DHT22;14177;51.520;6.764;2023-04-24T07:03:54;9.70;99.90
26503;DHT22;14177;51.520;6.764;2023-04-24T07:06:22;9.80;99.90
26503;DHT22;14177;51.520;6.764;2023-04-24T07:08:50;9.70;99.90
26503;DHT22;14177;51.520;6.764;2023-04-24T07:11:17;9.70;99.90
26503;DHT22;14177;51.520;6.764;2023-04-24T07:13:44;9.70;99.90
26503;DHT22;14177;51.520;6.764;2023-04-24T07:16:11;9.70;99.90
26503;DHT22;14177;51.520;6.764;2023-04-24T07:18:38;9.70;99.90
26503;DHT22;14177;51.520;6.764;2023-04-24T07:21:06;9.70;99.90
26503;DHT22;14177;51.520;6.764;2023-04-24T07:23:45;9.70;99.90
26503;DHT22;14177;51.520;6.764;2023-04-24T07:26:19;9.70;99.90
26503;DHT22;14177;51.520;6.764;2023-04-24T07:28:53;9.70;99.90
26503;DHT22;14177;51.520;6.764;2023-04-24T07:31:20;9.70;99.90
26503;DHT22;14177;51.520;6.764;2023-04-24T07:33:48;9.70;99.90
26503;DHT22;14177;51.520;6.764;2023-04-24T07:36:26;9.70;99.90
26503;DHT22;14177;51.520;6.764;2023-04-24T07:39:04;9.70;99.90
26503;DHT22;14177;51.520;6.764;2023-04-24T07:41:40;9.70;99.90
26503;DHT22;14177;51.520;6.764;2023-04-24T07:44:08;9.80;99.90
26503;DHT22;14177;51.520;6.764;2023-04-24T07:46:36;9.70;99.90
26503;DHT22;14177;51.520;6.764;2023-04-24T07:49:04;9.70;99.90
26503;DHT22;14177;51.520;6.764;2023-04-24T07:51:40;9.60;99.90
26503;DHT22;14177;51.520;6.764;2023-04-24T07:54:15;9.60;99.90
26503;DHT22;14177;51.520;6.764;2023-04-24T07:56:48;9.60;99.90
26503;DHT22;14177;51.520;6.764;2023-04-24T07:59:21;9.60;99.90
26503;DHT22;14177;51.520;6.764;2023-04-24T08:01:53;9.50;99.90
26503;DHT22;14177;51.520;6.764;2023-04-24T08:04:24;9.40;99.90
26503;DHT22;14177;51.520;6.764;2023-04-24T08:06:56;9.40;99.90
26503;DHT22;14177;51.520;6.764;2023-04-24T08:09:23;9.40;99.90
26503;DHT22;14177;51.520;6.764;2023-04-24T08:11:53;9.30;99.90
26503;DHT22;14177;51.520;6.764;2023-04-24T08:14:20;9.30;99.90
26503;DHT22;14177;51.520;6.764;2023-04-24T08:16:47;9.20;99.90
26503;DHT22;14177;51.520;6.764;2023-04-24T08:19:14;9.20;99.90
26503;DHT22;14177;51.520;6.764;2023-04-24T08:21:41;9.20;99.90
26503;DHT22;14177;51.520;6.764;2023-04-24T08:24:09;9.10;99.90
26503;DHT22;14177;51.520;6.764;2023-04-24T08:26:36;9.10;99.90
26503;DHT22;14177;51.520;6.764;2023-04-24T08:29:04;9.10;99.90
26503;DHT22;14177;51.520;6.764;2023-04-24T08:31:34;9.20;99.90
26503;DHT22;14177;51.520;6.764;2023-04-24T08:34:03;9.20;99.90
26503;DHT22;14177;51.520;6.764;2023-04-24T08:36:32;9.20;99.90
26503;DHT22;14177;51.520;6.764;2023-04-24T08:39:21;9.20;99.90
26503;DHT22;14177;51.520;6.764;2023-04-24T08:42:14;9.30;99.90
26503;DHT22;14177;51.520;6.764;2023-04-24T08:44:49;9.40;99.90
26503;DHT22;14177;51.520;6.764;2023-04-24T08:47:17;9.50;99.90
26503;DHT22;14177;51.520;6.764;2023-04-24T08:49:50;9.50;99.90
26503;DHT22;14177;51.520;6.764;2023-04-24T08:56:01;9.70;99.90
26503;DHT22;14177;51.520;6.764;2023-04-24T08:58:29;9.90;99.90
26503;DHT22;14177;51.520;6.764;2023-04-24T09:00:58;9.80;99.90
26503;DHT22;14177;51.520;6.764;2023-04-24T09:03:27;9.80;99.90
26503;DHT22;14177;51.520;6.764;2023-04-24T09:05:56;9.80;99.90
26503;DHT22;14177;51.520;6.764;2023-04-24T09:08:25;9.70;99.90
26503;DHT22;14177;51.520;6.764;2023-04-24T09:10:54;9.70;99.90
26503;DHT22;14177;51.520;6.764;2023-04-24T09:13:22;9.70;99.90
26503;DHT22;14177;51.520;6.764;2023-04-24T09:15:49;9.60;99.90
26503;DHT22;14177;51.520;6.764;2023-04-24T09:18:19;9.60;99.90
26503;DHT22;14177;51.520;6.764;2023-04-24T09:21:08;9.50;99.90
26503;DHT22;14177;51.520;6.764;2023-04-24T09:23:58;9.50;99.90
26503;DHT22;14177;51.520;6.764;2023-04-24T09:26:34;9.50;99.90
26503;DHT22;14177;51.520;6.764;2023-04-24T09:29:03;9.60;99.90
26503;DHT22;14177;51.520;6.764;2023-04-24T09:31:33;9.50;99.90
26503;DHT22;14177;51.520;6.764;2023-04-24T09:34:30;9.40;99.90
26503;DHT22;14177;51.520;6.764;2023-04-24T09:37:07;9.40;99.90
26503;DHT22;14177;51.520;6.764;2023-04-24T09:39:37;9.40;99.90
26503;DHT22;14177;51.520;6.764;2023-04-24T09:42:08;9.30;99.90
26503;DHT22;14177;51.520;6.764;2023-04-24T09:44:41;9.30;99.90
26503;DHT22;14177;51.520;6.764;2023-04-24T09:47:10;9.30;99.90
26503;DHT22;14177;51.520;6.764;2023-04-24T09:49:45;9.30;99.90
26503;DHT22;14177;51.520;6.764;2023-04-24T09:52:20;9.30;99.90
26503;DHT22;14177;51.520;6.764;2023-04-24T09:54:55;9.30;99.90
26503;DHT22;14177;51.520;6.764;2023-04-24T10:01:52;9.30;99.90
26503;DHT22;14177;51.520;6.764;2023-04-24T10:04:39;9.30;99.90
26503;DHT22;14177;51.520;6.764;2023-04-24T10:08:12;9.30;99.90
26503;DHT22;14177;51.520;6.764;2023-04-24T10:11:20;9.30;99.90
26503;DHT22;14177;51.520;6.764;2023-04-24T10:13:51;9.30;99.90
26503;DHT22;14177;51.520;6.764;2023-04-24T10:16:27;9.30;99.90
26503;DHT22;14177;51.520;6.764;2023-04-24T10:18:56;9.30;99.90
26503;DHT22;14177;51.520;6.764;2023-04-24T10:21:33;9.30;99.90
26503;DHT22;14177;51.520;6.764;2023-04-24T10:24:05;9.30;99.90
26503;DHT22;14177;51.520;6.764;2023-04-24T10:26:37;9.30;99.90
26503;DHT22;14177;51.520;6.764;2023-04-24T10:29:14;9.40;99.90
26503;DHT22;14177;51.520;6.764;2023-04-24T10:31:53;9.40;99.90
26503;DHT22;14177;51.520;6.764;2023-04-24T10:34:22;9.50;99.90
26503;DHT22;14177;51.520;6.764;2023-04-24T10:36:55;9.50;99.90
26503;DHT22;14177;51.520;6.764;2023-04-24T10:39:29;9.60;99.90
26503;DHT22;14177;51.520;6.764;2023-04-24T10:42:01;9.60;99.90
26503;DHT22;14177;51.520;6.764;2023-04-24T10:44:50;9.60;99.90
26503;DHT22;14177;51.520;6.764;2023-04-24T10:47:42;9.50;99.90
26503;DHT22;14177;51.520;6.764;2023-04-24T10:50:10;9.60;99.90
26503;DHT22;14177;51.520;6.764;2023-04-24T10:52:47;9.60;99.90
26503;DHT22;14177;51.520;6.764;2023-04-24T10:55:15;9.70;99.90
26503;DHT22;14177;51.520;6.764;2023-04-24T10:58:04;9.80;99.90
26503;DHT22;14177;51.520;6.764;2023-04-24T11:00:31;9.90;99.90
26503;DHT22;14177;51.520;6.764;2023-04-24T11:02:59;10.10;99.90
26503;DHT22;14177;51.520;6.764;2023-04-24T11:05:54;10.40;99.90
26503;DHT22;14177;51.520;6.764;2023-04-24T11:08:39;10.70;99.90
26503;DHT22;14177;51.520;6.764;2023-04-24T11:11:15;10.90;99.90
26503;DHT22;14177;51.520;6.764;2023-04-24T11:22:04;10.90;99.90
26503;DHT22;14177;51.520;6.764;2023-04-24T11:24:49;10.90;99.90
26503;DHT22;14177;51.520;6.764;2023-04-24T11:27:39;10.90;99.90
26503;DHT22;14177;51.520;6.764;2023-04-24T11:30:07;10.80;99.90
26503;DHT22;14177;51.520;6.764;2023-04-24T11:32:36;10.70;99.90
26503;DHT22;14177;51.520;6.764;2023-04-24T11:35:21;10.60;99.90
26503;DHT22;14177;51.520;6.764;2023-04-24T11:37:54;10.50;99.90
26503;DHT22;14177;51.520;6.764;2023-04-24T11:40:24;10.40;99.90
26503;DHT22;14177;51.520;6.764;2023-04-24T11:42:54;10.40;99.90
26503;DHT22;14177;51.520;6.764;2023-04-24T11:45:25;10.40;99.90
26503;DHT22;14177;51.520;6.764;2023-04-24T11:47:53;10.40;99.90
26503;DHT22;14177;51.520;6.764;2023-04-24T11:50:25;10.60;99.90
26503;DHT22;14177;51.520;6.764;2023-04-24T11:52:54;10.70;99.90
26503;DHT22;14177;51.520;6.764;2023-04-24T11:55:23;10.70;99.90
26503;DHT22;14177;51.520;6.764;2023-04-24T11:57:56;10.80;99.90
26503;DHT22;14177;51.520;6.764;2023-04-24T12:00:29;10.80;99.90
26503;DHT22;14177;51.520;6.764;2023-04-24T12:05:33;10.90;99.90
26503;DHT22;14177;51.520;6.764;2023-04-24T12:08:01;10.90;99.90
26503;DHT22;14177;51.520;6.764;2023-04-24T12:10:31;10.80;99.90
26503;DHT22;14177;51.520;6.764;2023-04-24T12:12:59;10.80;99.90
26503;DHT22;14177;51.520;6.764;2023-04-24T12:15:27;10.80;99.90
26503;DHT22;14177;51.520;6.764;2023-04-24T12:17:55;10.80;99.90
26503;DHT22;14177;51.520;6.764;2023-04-24T12:20:26;10.60;99.90
26503;DHT22;14177;51.520;6.764;2023-04-24T12:22:58;10.60;99.90
26503;DHT22;14177;51.520;6.764;2023-04-24T12:25:28;10.50;99.90
26503;DHT22;14177;51.520;6.764;2023-04-24T12:30:33;10.50;99.90
26503;DHT22;14177;51.520;6.764;2023-04-24T12:33:02;10.60;99.90
26503;DHT22;14177;51.520;6.764;2023-04-24T12:35:31;10.70;99.90
26503;DHT22;14177;51.520;6.764;2023-04-24T12:38:13;10.70;99.90
26503;DHT22;14177;51.520;6.764;2023-04-24T12:40:43;10.70;99.90
26503;DHT22;14177;51.520;6.764;2023-04-24T12:43:18;10.80;99.90
26503;DHT22;14177;51.520;6.764;2023-04-24T12:45:47;10.80;99.90
26503;DHT22;14177;51.520;6.764;2023-04-24T12:48:15;11.00;99.90
26503;DHT22;14177;51.520;6.764;2023-04-24T12:50:43;11.20;99.90
26503;DHT22;14177;51.520;6.764;2023-04-24T12:53:13;11.40;99.90
26503;DHT22;14177;51.520;6.764;2023-04-24T12:55:40;11.50;99.90
26503;DHT22;14177;51.520;6.764;2023-04-24T12:58:08;11.50;99.90
26503;DHT22;14177;51.520;6.764;2023-04-24T13:00:38;11.50;99.90
26503;DHT22;14177;51.520;6.764;2023-04-24T13:03:05;11.40;99.90
26503;DHT22;14177;51.520;6.764;2023-04-24T13:05:33;11.40;99.90
26503;DHT22;14177;51.520;6.764;2023-04-24T13:08:00;11.30;99.90
26503;DHT22;14177;51.520;6.764;2023-04-24T13:10:27;11.30;99.90
26503;DHT22;14177;51.520;6.764;2023-04-24T13:13:01;11.20;99.90
26503;DHT22;14177;51.520;6.764;2023-04-24T13:15:28;11.10;99.90
26503;DHT22;14177;51.520;6.764;2023-04-24T13:17:55;11.10;99.90
26503;DHT22;14177;51.520;6.764;2023-04-24T13:20:22;11.10;99.90
26503;DHT22;14177;51.520;6.764;2023-04-24T13:22:49;11.00;99.90
26503;DHT22;14177;51.520;6.764;2023-04-24T13:25:16;10.90;99.90
26503;DHT22;14177;51.520;6.764;2023-04-24T13:27:44;10.90;99.90
26503;DHT22;14177;51.520;6.764;2023-04-24T13:30:12;10.90;99.90
26503;DHT22;14177;51.520;6.764;2023-04-24T13:32:39;10.80;99.90
26503;DHT22;14177;51.520;6.764;2023-04-24T13:35:06;10.90;99.90
26503;DHT22;14177;51.520;6.764;2023-04-24T13:37:34;10.90;99.90
26503;DHT22;14177;51.520;6.764;2023-04-24T13:40:01;10.90;99.90
26503;DHT22;14177;51.520;6.764;2023-04-24T13:42:28;11.00;99.90
26503;DHT22;14177;51.520;6.764;2023-04-24T13:44:55;11.20;99.90
26503;DHT22;14177;51.520;6.764;2023-04-24T13:47:22;11.30;99.90
26503;DHT22;14177;51.520;6.764;2023-04-24T13:49:49;11.50;99.90
26503;DHT22;14177;51.520;6.764;2023-04-24T13:52:16;11.70;99.90
26503;DHT22;14177;51.520;6.764;2023-04-24T13:54:43;11.80;99.90
26503;DHT22;14177;51.520;6.764;2023-04-24T13:57:10;11.90;99.90
26503;DHT22;14177;51.520;6.764;2023-04-24T13:59:38;11.90;99.90
26503;DHT22;14177;51.520;6.764;2023-04-24T14:02:05;12.00;99.90
26503;DHT22;14177;51.520;6.764;2023-04-24T14:04:32;11.90;99.90
26503;DHT22;14177;51.520;6.764;2023-04-24T14:06:59;11.90;99.90
26503;DHT22;14177;51.520;6.764;2023-04-24T14:09:26;11.90;99.90
26503;DHT22;14177;51.520;6.764;2023-04-24T14:11:53;11.80;99.90
26503;DHT22;14177;51.520;6.764;2023-04-24T14:14:21;11.70;99.90
26503;DHT22;14177;51.520;6.764;2023-04-24T14:16:48;11.60;99.90
26503;DHT22;14177;51.520;6.764;2023-04-24T14:19:15;11.50;99.90
26503;DHT22;14177;51.520;6.764;2023-04-24T14:21:41;11.40;99.90
26503;DHT22;14177;51.520;6.764;2023-04-24T14:24:08;11.40;99.90
26503;DHT22;14177;51.520;6.764;2023-04-24T14:26:35;11.40;99.90
26503;DHT22;14177;51.520;6.764;2023-04-24T14:29:02;11.30;99.90
26503;DHT22;14177;51.520;6.764;2023-04-24T14:31:40;11.20;99.90
26503;DHT22;14177;51.520;6.764;2023-04-24T14:34:08;11.10;99.90
26503;DHT22;14177;51.520;6.764;2023-04-24T14:36:36;11.00;99.90
26503;DHT22;14177;51.520;6.764;2023-04-24T14:39:03;10.90;99.90
26503;DHT22;14177;51.520;6.764;2023-04-24T14:41:33;10.90;99.90
26503;DHT22;14177;51.520;6.764;2023-04-24T14:44:03;10.80;99.90
26503;DHT22;14177;51.520;6.764;2023-04-24T14:46:30;10.70;99.90
26503;DHT22;14177;51.520;6.764;2023-04-24T14:48:58;10.70;99.90
26503;DHT22;14177;51.520;6.764;2023-04-24T14:51:25;10.60;99.90
26503;DHT22;14177;51.520;6.764;2023-04-24T14:53:52;10.60;99.90
26503;DHT22;14177;51.520;6.764;2023-04-24T14:56:19;10.70;99.90
26503;DHT22;14177;51.520;6.764;2023-04-24T14:58:46;10.90;99.90
26503;DHT22;14177;51.520;6.764;2023-04-24T15:01:21;10.90;99.90
26503;DHT22;14177;51.520;6.764;2023-04-24T15:04:28;11.00;99.90
26503;DHT22;14177;51.520;6.764;2023-04-24T15:06:58;11.10;99.90
26503;DHT22;14177;51.520;6.764;2023-04-24T15:09:25;11.30;99.90
26503;DHT22;14177;51.520;6.764;2023-04-24T15:11:53;11.30;99.90
26503;DHT22;14177;51.520;6.764;2023-04-24T15:14:20;11.40;99.90
26503;DHT22;14177;51.520;6.764;2023-04-24T15:16:47;11.60;99.90
26503;DHT22;14177;51.520;6.764;2023-04-24T15:19:14;11.70;99.90
26503;DHT22;14177;51.520;6.764;2023-04-24T15:21:42;11.80;99.90
26503;DHT22;14177;51.520;6.764;2023-04-24T15:24:10;11.70;99.90
26503;DHT22;14177;51.520;6.764;2023-04-24T15:26:38;11.70;99.90
26503;DHT22;14177;51.520;6.764;2023-04-24T15:29:05;11.70;99.90
26503;DHT22;14177;51.520;6.764;2023-04-24T15:31:32;11.80;99.90
26503;DHT22;14177;51.520;6.764;2023-04-24T15:33:59;12.10;99.90
26503;DHT22;14177;51.520;6.764;2023-04-24T15:36:35;12.00;99.90
26503;DHT22;14177;51.520;6.764;2023-04-24T15:39:02;11.80;99.90
26503;DHT22;14177;51.520;6.764;2023-04-24T15:41:32;11.70;99.90
26503;DHT22;14177;51.520;6.764;2023-04-24T15:43:59;11.70;99.90
26503;DHT22;14177;51.520;6.764;2023-04-24T15:46:26;11.70;99.90
26503;DHT22;14177;51.520;6.764;2023-04-24T15:48:54;11.80;99.90
26503;DHT22;14177;51.520;6.764;2023-04-24T15:51:21;11.90;99.90
26503;DHT22;14177;51.520;6.764;2023-04-24T15:53:48;11.90;99.90
26503;DHT22;14177;51.520;6.764;2023-04-24T15:56:15;12.00;99.90
26503;DHT22;14177;51.520;6.764;2023-04-24T15:58:42;12.10;99.90
26503;DHT22;14177;51.520;6.764;2023-04-24T16:01:09;12.20;99.90
26503;DHT22;14177;51.520;6.764;2023-04-24T16:03:37;12.40;99.90
26503;DHT22;14177;51.520;6.764;2023-04-24T16:06:05;12.60;99.90
26503;DHT22;14177;51.520;6.764;2023-04-24T16:08:32;12.70;99.90
26503;DHT22;14177;51.520;6.764;2023-04-24T16:10:59;12.60;99.90
26503;DHT22;14177;51.520;6.764;2023-04-24T16:13:26;12.30;99.90
26503;DHT22;14177;51.520;6.764;2023-04-24T16:15:55;12.10;99.90